Terminal Aerodrome Forecast
Issued by NWS

Home | Current Version | Previous Version | Graphics & Text | Print | Product List | Glossary On
Versions: 1 2 3 4 5 6 7 8 9 10 11 12 13 14 15 16 17 18 19 20 21 22 23 24
000
FTUS43 KICT 170500
TAFSLN
TAF
KSLN 170522Z 1706/1806 15009KT P6SM SCT040
     FM170800 17008KT 4SM BR VCTS SCT011 BKN020CB
     FM171500 19007KT P6SM SCT040
      TEMPO 1715/1718 BKN025
     FM172100 11006KT P6SM SCT030=

USA.gov is the U.S. government's official web portal to all federal, state and local government web resources and services.